• Join FlightAware (Why Join?)
  • Login
  • US Flag 
04:08PM EDT


 

Airport Tracker/Info


-or-


 

Live Flight TrackerFlight Track Log ✈ SKW5564 ✈ 30-Jun-2013 ✈ KLAX - KPSP

Flight Track Log - Related Links

Times and Time Zones

All times are in EDT time to prevent confusion due to time zone crossing. See the SKW5564 flight status page for this flight to view local times or setup timezone preferences in your user account.

Time Position Orientation Groundspeed Altitude Reporting Facility
EDT Latitude Longitude Course Direction KTS MPH feet Rate Location/Type
07:28PM 33.9333 -118.4333 231° Southwest 154 177 1,600  Level Southern California TRACON
07:28PM 33.9164 -118.4586 231° Southwest 177 204 2,500 1,200 Climbing Los Angeles Center
07:29PM 33.8689 -118.4858 205° Southwest 193 222 3,600 1,200 Climbing Los Angeles Center
07:30PM 33.8214 -118.4964 190° South 194 223 5,000 1,440 Climbing Los Angeles Center
07:31PM 33.7892 -118.4339 122° Southeast 199 229 6,600 1,320 Climbing Los Angeles Center
07:32PM 33.7908 -118.3656 88° East 201 231 7,800 1,140 Climbing Los Angeles Center
07:33PM 33.7894 -118.2928 91° East 207 238 9,000 1,080 Climbing Los Angeles Center
07:34PM 33.7897 -118.2211 90° East 209 241 10,100 1,080 Climbing Los Angeles Center
07:35PM 33.7883 -118.1489 91° East 213 245 11,300 960 Climbing Los Angeles Center
07:36PM 33.7839 -118.0772 94° East 214 246 12,100 780 Climbing Los Angeles Center
07:37PM 33.7808 -118.0064 93° East 214 246 13,000 840 Climbing Los Angeles Center
07:38PM 33.7747 -117.9356 96° East 214 246 13,900 780 Climbing Los Angeles Center
07:39PM 33.7683 -117.8642 96° East 215 247 14,700 480 Climbing Los Angeles Center
07:40PM 33.7619 -117.7722 95° East 227 261 15,000 60 Climbing Los Angeles Center
07:41PM 33.7547 -117.6869 96° East 247 284 14,900 -60 Descending Los Angeles Center
07:43PM 33.7472 -117.5972 96° East 263 303 14,900  Level Los Angeles Center
07:44PM 33.7397 -117.5058 96° East 272 313 14,900  Level Los Angeles Center
07:45PM 33.7339 -117.4156 94° East 273 314 14,900  Level Los Angeles Center
07:46PM 33.7267 -117.3233 95° East 276 318 14,900  Level Los Angeles Center
07:47PM 33.7203 -117.2333 95° East 274 315 14,900  Level Los Angeles Center
07:48PM 33.7100 -117.1236 96° East 275 316 14,900  Level Los Angeles Center
07:49PM 33.7042 -117.0317 94° East 275 316 14,900  Level Los Angeles Center
07:50PM 33.6961 -116.9417 96° East 274 315 14,900  Level Los Angeles Center
07:51PM 33.6883 -116.8511 96° East 273 314 15,000 -300 Climbing Los Angeles Center
07:52PM 33.6811 -116.7597 95° East 273 314 14,300 -1,020 Descending Los Angeles Center
07:53PM 33.6719 -116.6697 97° East 273 314 12,900 -1,980 Descending Los Angeles Center
07:54PM 33.7028 -116.5833 67° East 245 282 10,300 -2,640 Descending Los Angeles Center
07:55PM 33.7350 -116.5200 59° Northeast 229 264 7,500 -1,620 Descending Los Angeles Center
07:56PM 33.7678 -116.4597 57° Northeast 228 262 7,000 -2,040 Descending Los Angeles Center
07:58PM 33.8333 -116.4833 343° North 156 180 2,100 -1,980 Descending Southern California TRACON
07:59PM 33.8667 -116.5167 320° Northwest 154 177 1,800 -660 Descending Southern California TRACON
08:00PM 33.8500 -116.5167 180° South 146 168 800 -1,020 Descending Southern California TRACON
08:02PM 33.8297 -116.5067 165° South  Level Estimated